Time;durP1;ratioP1;P1;durP2;ratioP2;P2;SDS_P1;SDS_P2;PMS_P1;PMS_P2;Temp;Humidity;BMP_temperature;BMP_pressure;BME280_temperature;BME280_humidity;BME280_pressure;Samples;Min_cycle;Max_cycle;Signal;HPM_P1;HPM_P2
2024/03/04 00:02:01;;;;;;;76.30;48.67;;;8.40;99.90;;;;;;4960069;28;20057;-70
2024/03/04 00:04:29;;;;;;;77.55;48.92;;;8.30;99.90;;;;;;4971782;28;20045;-70
2024/03/04 00:06:58;;;;;;;80.32;47.58;;;8.20;99.90;;;;;;4957560;28;20085;-69
2024/03/04 00:09:25;;;;;;;75.15;46.65;;;8.20;99.90;;;;;;4970247;28;20536;-70
2024/03/04 00:11:52;;;;;;;75.82;48.53;;;8.20;99.90;;;;;;4970757;28;20700;-70
2024/03/04 00:14:19;;;;;;;79.78;47.97;;;8.00;99.90;;;;;;4951275;28;20046;-71
2024/03/04 00:16:48;;;;;;;79.72;48.13;;;7.90;99.90;;;;;;4971377;28;20043;-70
2024/03/04 00:19:18;;;;;;;77.95;47.78;;;7.80;99.90;;;;;;4972775;28;20117;-70
2024/03/04 00:21:46;;;;;;;74.85;47.58;;;7.80;99.90;;;;;;4974759;28;20132;-70
2024/03/04 00:24:13;;;;;;;79.47;45.38;;;7.80;99.90;;;;;;4973459;28;20062;-70
2024/03/04 00:26:40;;;;;;;79.95;46.80;;;7.60;99.90;;;;;;4965937;28;20070;-70
2024/03/04 00:29:07;;;;;;;82.53;49.40;;;7.60;99.90;;;;;;4972716;28;20053;-70
2024/03/04 00:31:34;;;;;;;88.03;47.80;;;7.40;99.90;;;;;;4970475;28;21389;-70
2024/03/04 00:34:01;;;;;;;78.80;47.35;;;7.30;99.90;;;;;;4968670;28;20218;-70
2024/03/04 00:36:29;;;;;;;81.57;47.28;;;7.40;99.90;;;;;;4969642;28;20530;-68
2024/03/04 00:38:57;;;;;;;87.97;50.83;;;7.20;99.90;;;;;;4957444;28;20050;-70
2024/03/04 00:41:27;;;;;;;85.97;50.03;;;7.20;99.90;;;;;;4969816;28;20120;-70
2024/03/04 00:43:54;;;;;;;85.25;50.63;;;7.10;99.90;;;;;;4958593;28;20057;-70
2024/03/04 00:46:23;;;;;;;88.03;49.70;;;7.10;99.90;;;;;;4971709;28;20046;-69
2024/03/04 00:48:50;;;;;;;84.85;51.80;;;7.00;99.90;;;;;;4988478;28;20343;-68
2024/03/04 00:51:17;;;;;;;84.68;52.22;;;6.90;99.90;;;;;;4972934;28;20785;-70
2024/03/04 00:53:44;;;;;;;89.85;51.33;;;6.90;99.90;;;;;;4973731;28;20047;-70
2024/03/04 00:56:13;;;;;;;89.78;53.47;;;6.80;99.90;;;;;;4977001;28;20577;-70
2024/03/04 00:58:43;;;;;;;89.97;50.53;;;6.80;99.90;;;;;;4971135;28;20195;-68
2024/03/04 01:01:10;;;;;;;99.00;53.42;;;6.60;99.90;;;;;;4973257;28;20256;-70
2024/03/04 01:03:37;;;;;;;91.38;50.35;;;6.50;99.90;;;;;;4972363;28;20612;-69
2024/03/04 01:06:05;;;;;;;96.38;50.95;;;6.40;99.90;;;;;;4969400;28;20125;-70
2024/03/04 01:08:32;;;;;;;96.25;51.95;;;6.40;99.90;;;;;;4967761;28;20059;-69
2024/03/04 01:10:59;;;;;;;101.20;53.05;;;6.40;99.90;;;;;;4962027;28;20085;-69
2024/03/04 01:13:26;;;;;;;98.25;51.25;;;6.30;99.90;;;;;;4982184;28;20046;-70
2024/03/04 01:15:54;;;;;;;104.80;52.70;;;6.20;99.90;;;;;;4971046;28;20054;-70
2024/03/04 01:18:21;;;;;;;92.75;49.30;;;6.20;99.90;;;;;;4955017;28;20054;-68
2024/03/04 01:20:49;;;;;;;102.28;51.42;;;6.20;99.90;;;;;;4966035;28;20046;-71
2024/03/04 01:23:16;;;;;;;98.57;51.20;;;6.00;99.90;;;;;;4969071;28;20062;-69
2024/03/04 01:25:44;;;;;;;105.15;52.67;;;6.00;99.90;;;;;;4964048;28;20060;-70
2024/03/04 01:28:14;;;;;;;102.90;53.45;;;6.00;99.90;;;;;;4965734;28;20456;-69
2024/03/04 01:30:41;;;;;;;103.00;54.63;;;6.00;99.90;;;;;;4965325;28;21662;-70
2024/03/04 01:33:08;;;;;;;117.35;55.63;;;5.90;99.90;;;;;;4967631;28;20146;-69
2024/03/04 01:35:35;;;;;;;102.57;53.25;;;5.90;99.90;;;;;;4963519;28;20061;-71
2024/03/04 01:38:03;;;;;;;107.53;52.78;;;5.90;99.90;;;;;;4956377;28;20061;-70
2024/03/04 01:40:30;;;;;;;104.88;53.45;;;5.80;99.90;;;;;;4964437;28;20038;-70
2024/03/04 01:42:57;;;;;;;112.18;55.90;;;5.70;99.90;;;;;;4967624;28;20511;-70
2024/03/04 01:45:26;;;;;;;106.10;52.58;;;5.70;99.90;;;;;;4958406;28;20050;-70
2024/03/04 01:48:04;;;;;;;104.93;53.17;;;5.50;99.90;;;;;;4964349;28;20063;-70
2024/03/04 01:50:38;;;;;;;101.22;53.50;;;5.50;99.90;;;;;;4962867;28;20061;-70
2024/03/04 01:53:08;;;;;;;106.95;49.92;;;5.40;99.90;;;;;;4966104;28;20135;-70
2024/03/04 01:55:49;;;;;;;100.47;50.15;;;5.30;99.90;;;;;;4960388;28;20049;-71
2024/03/04 01:58:17;;;;;;;115.38;53.72;;;5.20;99.90;;;;;;4966958;28;20108;-70
2024/03/04 02:00:48;;;;;;;113.68;54.15;;;5.10;99.90;;;;;;4962885;28;20058;-69
2024/03/04 02:03:19;;;;;;;111.97;50.55;;;5.00;99.90;;;;;;4969787;28;20054;-70
2024/03/04 02:05:48;;;;;;;101.70;49.10;;;5.00;99.90;;;;;;4960236;28;20054;-70
2024/03/04 02:08:16;;;;;;;107.18;51.40;;;5.00;99.90;;;;;;4970856;28;20423;-70
2024/03/04 02:10:46;;;;;;;118.85;53.72;;;5.00;99.90;;;;;;4961379;28;21524;-70
2024/03/04 02:13:14;;;;;;;120.72;53.92;;;5.10;99.90;;;;;;4962684;28;20051;-70
2024/03/04 02:15:41;;;;;;;126.45;54.65;;;5.20;99.90;;;;;;4948506;28;20599;-70
2024/03/04 02:18:09;;;;;;;131.02;54.80;;;5.10;99.90;;;;;;4973606;28;20431;-70
2024/03/04 02:20:41;;;;;;;120.50;53.88;;;5.20;99.90;;;;;;4963285;28;20050;-70
2024/03/04 02:23:10;;;;;;;134.90;55.90;;;5.10;99.90;;;;;;4973114;28;20070;-69
2024/03/04 02:25:39;;;;;;;113.47;51.15;;;4.90;99.90;;;;;;4968498;28;20177;-71
2024/03/04 02:28:07;;;;;;;115.47;50.90;;;4.90;99.90;;;;;;4973621;28;20053;-70
2024/03/04 02:30:34;;;;;;;99.25;46.75;;;4.70;99.90;;;;;;4962697;28;20062;-70
2024/03/04 02:33:03;;;;;;;96.53;46.38;;;4.70;99.90;;;;;;4969096;28;20049;-69
2024/03/04 02:35:34;;;;;;;95.22;47.53;;;4.50;99.90;;;;;;4961733;28;20047;-68
2024/03/04 02:38:02;;;;;;;86.10;42.58;;;4.50;99.90;;;;;;4968536;28;20058;-70
2024/03/04 02:40:29;;;;;;;91.57;45.33;;;4.50;99.90;;;;;;4953582;28;20053;-68
2024/03/04 02:42:56;;;;;;;93.60;46.50;;;4.40;99.90;;;;;;4972909;28;20109;-70
2024/03/04 02:45:23;;;;;;;101.47;45.90;;;4.40;99.90;;;;;;4979090;28;20108;-69
2024/03/04 02:47:51;;;;;;;87.68;39.90;;;4.20;99.90;;;;;;4964869;28;20081;-70
2024/03/04 02:50:18;;;;;;;84.82;42.10;;;4.10;99.90;;;;;;4975176;28;20123;-69
2024/03/04 02:52:45;;;;;;;82.63;40.28;;;4.00;99.90;;;;;;4963484;28;20051;-69
2024/03/04 02:55:12;;;;;;;97.90;46.40;;;3.90;99.90;;;;;;4969926;28;20050;-70
2024/03/04 02:57:39;;;;;;;108.05;47.67;;;3.90;99.90;;;;;;4969519;28;20101;-69
2024/03/04 03:00:07;;;;;;;117.35;51.47;;;4.10;99.90;;;;;;4974852;28;20141;-69
2024/03/04 03:02:34;;;;;;;124.72;54.33;;;4.20;99.90;;;;;;4968515;28;20050;-69
2024/03/04 03:05:01;;;;;;;129.23;56.78;;;4.40;99.90;;;;;;4966587;28;20050;-70
2024/03/04 03:07:28;;;;;;;133.90;60.47;;;4.70;99.90;;;;;;4967573;28;20145;-68
2024/03/04 03:09:55;;;;;;;130.85;60.47;;;4.80;99.90;;;;;;4965886;28;20042;-70
2024/03/04 03:12:23;;;;;;;157.43;67.63;;;5.00;99.90;;;;;;4953113;28;20045;-70
2024/03/04 03:14:50;;;;;;;153.82;65.95;;;5.40;99.90;;;;;;4955335;28;20919;-69
2024/03/04 03:17:19;;;;;;;143.80;63.55;;;5.60;99.90;;;;;;4975815;28;20049;-69
2024/03/04 03:19:46;;;;;;;151.80;67.43;;;5.70;99.90;;;;;;4973667;28;20137;-69
2024/03/04 03:22:13;;;;;;;150.00;68.85;;;5.80;99.90;;;;;;4968375;28;20050;-70
2024/03/04 03:24:41;;;;;;;171.70;70.28;;;6.00;99.90;;;;;;4977169;28;20062;-69
2024/03/04 03:27:10;;;;;;;166.70;73.65;;;6.10;99.90;;;;;;4977290;28;20056;-71
2024/03/04 03:29:37;;;;;;;174.80;71.35;;;6.40;99.90;;;;;;4963780;28;20726;-70
2024/03/04 03:32:05;;;;;;;163.77;71.60;;;6.50;99.90;;;;;;4969814;28;20238;-68
2024/03/04 03:34:32;;;;;;;169.20;73.35;;;6.60;99.90;;;;;;4957824;28;20058;-70
2024/03/04 03:36:59;;;;;;;176.88;77.38;;;6.70;99.90;;;;;;4956479;28;20042;-70
2024/03/04 03:39:26;;;;;;;187.27;78.00;;;6.70;99.90;;;;;;4972317;28;20121;-70
2024/03/04 03:41:53;;;;;;;183.80;78.70;;;6.80;99.90;;;;;;4968104;28;20137;-71
2024/03/04 03:44:21;;;;;;;187.95;79.97;;;6.90;99.90;;;;;;4969462;28;20137;-69
2024/03/04 03:46:48;;;;;;;203.57;84.22;;;7.00;99.90;;;;;;4968114;28;20053;-71
2024/03/04 03:49:16;;;;;;;213.43;82.85;;;7.00;99.90;;;;;;4981673;28;20077;-69
2024/03/04 03:51:43;;;;;;;228.35;90.05;;;7.10;99.90;;;;;;4967754;28;20203;-70
2024/03/04 03:54:13;;;;;;;218.77;86.47;;;7.10;99.90;;;;;;4974214;28;20233;-69
2024/03/04 03:56:40;;;;;;;235.35;90.97;;;7.10;99.90;;;;;;4955374;28;20042;-69
2024/03/04 03:59:08;;;;;;;226.00;92.45;;;7.20;99.90;;;;;;4958335;28;20054;-70
2024/03/04 04:01:36;;;;;;;239.55;92.82;;;7.20;99.90;;;;;;4962562;28;20053;-69
2024/03/04 04:04:04;;;;;;;243.65;96.22;;;7.20;99.90;;;;;;4959339;28;20042;-69
2024/03/04 04:06:31;;;;;;;263.38;99.32;;;7.20;99.90;;;;;;4967906;28;20711;-68
2024/03/04 04:08:59;;;;;;;273.90;102.30;;;7.20;99.90;;;;;;4971035;28;20058;-70
2024/03/04 04:11:27;;;;;;;268.40;104.63;;;7.20;99.90;;;;;;4963790;28;20053;-70
2024/03/04 04:13:54;;;;;;;272.23;102.28;;;7.20;99.90;;;;;;4964172;28;20069;-69
2024/03/04 04:16:21;;;;;;;265.25;102.40;;;7.30;99.90;;;;;;4967711;28;20133;-70
2024/03/04 04:18:48;;;;;;;287.25;110.18;;;7.30;99.90;;;;;;4950226;28;20078;-71
2024/03/04 04:21:15;;;;;;;291.23;107.03;;;7.30;99.90;;;;;;4960108;28;20046;-70
2024/03/04 04:23:42;;;;;;;329.13;113.93;;;7.30;99.90;;;;;;4983105;28;20149;-70
2024/03/04 04:26:09;;;;;;;310.38;110.22;;;7.30;99.90;;;;;;4970766;28;20248;-70
2024/03/04 04:28:36;;;;;;;318.00;114.72;;;7.20;99.90;;;;;;4978494;28;20086;-69
2024/03/04 04:31:04;;;;;;;342.33;116.32;;;7.20;99.90;;;;;;4983291;28;20057;-71
2024/03/04 04:33:31;;;;;;;358.35;125.32;;;7.20;99.90;;;;;;4952011;28;20077;-70
2024/03/04 04:35:59;;;;;;;328.95;113.20;;;7.20;99.90;;;;;;4941069;28;20047;-70
2024/03/04 04:38:27;;;;;;;366.15;123.55;;;7.20;99.90;;;;;;4970858;28;20615;-70
2024/03/04 04:40:56;;;;;;;383.10;127.75;;;7.20;99.90;;;;;;4965238;28;21131;-70
2024/03/04 04:43:23;;;;;;;408.63;129.15;;;7.20;99.90;;;;;;4975500;28;20050;-70
2024/03/04 04:45:50;;;;;;;428.65;130.02;;;7.20;99.90;;;;;;4953385;28;20050;-70
2024/03/04 04:48:18;;;;;;;377.60;125.90;;;7.20;99.90;;;;;;4972612;28;20042;-71
2024/03/04 04:50:45;;;;;;;397.65;129.85;;;7.20;99.90;;;;;;4970556;28;20044;-69
2024/03/04 04:53:12;;;;;;;419.88;134.38;;;7.20;99.90;;;;;;4959141;28;20104;-72
2024/03/04 04:55:39;;;;;;;426.63;135.82;;;7.20;99.90;;;;;;4968533;28;20058;-71
2024/03/04 04:58:07;;;;;;;460.38;139.80;;;7.20;99.90;;;;;;4970157;28;20064;-71
2024/03/04 05:00:34;;;;;;;427.48;135.23;;;7.20;99.90;;;;;;4972080;28;20130;-69
2024/03/04 05:03:01;;;;;;;455.05;141.05;;;7.20;99.90;;;;;;4976666;28;20060;-70
2024/03/04 05:05:28;;;;;;;449.52;138.10;;;7.20;99.90;;;;;;4974866;28;20046;-71
2024/03/04 05:07:55;;;;;;;445.27;139.23;;;7.20;99.90;;;;;;4966053;28;20050;-70
2024/03/04 05:10:22;;;;;;;546.80;150.55;;;7.20;99.90;;;;;;4969701;28;20054;-69
2024/03/04 05:12:49;;;;;;;486.05;146.10;;;7.20;99.90;;;;;;4949073;28;20491;-70
2024/03/04 05:15:17;;;;;;;611.83;162.60;;;7.10;99.90;;;;;;4972123;28;20527;-70
2024/03/04 05:17:44;;;;;;;501.05;147.68;;;7.20;99.90;;;;;;4964724;28;20071;-70
2024/03/04 05:20:11;;;;;;;602.35;160.18;;;7.20;99.90;;;;;;4951437;28;20053;-70
2024/03/04 05:22:38;;;;;;;582.40;154.80;;;7.20;99.90;;;;;;4969352;28;20061;-68
2024/03/04 05:25:06;;;;;;;615.33;163.75;;;7.20;99.90;;;;;;4951899;28;20046;-71
2024/03/04 05:27:33;;;;;;;558.88;154.63;;;7.20;99.90;;;;;;4965350;28;20229;-69
2024/03/04 05:30:00;;;;;;;590.95;156.98;;;7.10;99.90;;;;;;4967707;28;20050;-69
2024/03/04 05:32:28;;;;;;;499.05;142.05;;;7.10;99.90;;;;;;4969232;28;20046;-69
2024/03/04 05:34:55;;;;;;;511.00;149.30;;;7.10;99.90;;;;;;4967196;28;20041;-70
2024/03/04 05:37:22;;;;;;;744.30;173.63;;;7.20;99.90;;;;;;4976027;28;20049;-70
2024/03/04 05:39:49;;;;;;;603.90;162.65;;;7.20;99.90;;;;;;4969347;28;20057;-70
2024/03/04 05:42:17;;;;;;;702.50;170.25;;;7.20;99.90;;;;;;4966439;28;20046;-69
2024/03/04 05:44:45;;;;;;;637.28;159.15;;;7.20;99.90;;;;;;4977178;28;20308;-70
2024/03/04 05:47:12;;;;;;;512.15;146.45;;;7.20;99.90;;;;;;4978961;28;20055;-70
2024/03/04 05:49:39;;;;;;;816.13;181.25;;;7.20;99.90;;;;;;4972400;28;20064;-70
2024/03/04 05:52:07;;;;;;;678.72;165.40;;;7.20;99.90;;;;;;4951638;28;20589;-71
2024/03/04 05:54:34;;;;;;;947.63;195.20;;;7.20;99.90;;;;;;4972776;28;20787;-68
2024/03/04 05:57:01;;;;;;;851.97;185.18;;;7.10;99.90;;;;;;4971802;28;21115;-70
2024/03/04 05:59:28;;;;;;;774.97;179.35;;;7.10;99.90;;;;;;4967910;28;20651;-69
2024/03/04 06:01:55;;;;;;;793.95;170.02;;;7.10;99.90;;;;;;4960815;28;20042;-70
2024/03/04 06:04:24;;;;;;;862.90;184.35;;;7.10;99.90;;;;;;4953077;28;20060;-71
2024/03/04 06:06:51;;;;;;;1049.38;202.98;;;7.10;99.90;;;;;;4947793;28;20046;-70
2024/03/04 06:09:19;;;;;;;869.42;181.65;;;7.00;99.90;;;;;;4961513;28;20082;-71
2024/03/04 06:11:46;;;;;;;851.78;188.18;;;7.00;99.90;;;;;;4964893;28;20419;-70
2024/03/04 06:14:13;;;;;;;1052.80;204.85;;;7.00;99.90;;;;;;4971413;28;20050;-70
2024/03/04 06:16:41;;;;;;;862.13;181.82;;;6.90;99.90;;;;;;4970070;28;20476;-70
2024/03/04 06:19:08;;;;;;;909.83;186.02;;;6.90;99.90;;;;;;4971049;28;20046;-69
2024/03/04 06:21:36;;;;;;;1150.75;208.75;;;6.80;99.90;;;;;;4963298;28;20049;-69
2024/03/04 06:24:03;;;;;;;1041.00;200.27;;;6.80;99.90;;;;;;4957622;28;21161;-70
2024/03/04 06:26:30;;;;;;;761.08;168.63;;;6.90;99.90;;;;;;4985080;28;20049;-71
2024/03/04 06:28:57;;;;;;;1126.03;210.75;;;6.80;99.90;;;;;;4961322;28;20047;-70
2024/03/04 06:31:26;;;;;;;1022.13;191.77;;;6.80;99.90;;;;;;4968848;28;20068;-71
2024/03/04 06:33:53;;;;;;;1173.10;210.73;;;6.80;99.90;;;;;;4957238;28;20589;-70
2024/03/04 06:36:22;;;;;;;790.88;178.50;;;6.80;99.90;;;;;;4966945;28;20626;-70
2024/03/04 06:38:50;;;;;;;1098.97;200.93;;;6.80;99.90;;;;;;4967636;28;20056;-70
2024/03/04 06:41:18;;;;;;;999.30;196.30;;;6.80;99.90;;;;;;4971833;28;20042;-70
2024/03/04 06:43:45;;;;;;;1356.93;230.07;;;6.90;99.90;;;;;;4971242;28;20534;-69
2024/03/04 06:46:12;;;;;;;1199.63;219.40;;;6.90;99.90;;;;;;4974902;28;20054;-71
2024/03/04 06:48:39;;;;;;;1318.72;223.18;;;6.90;99.90;;;;;;4965576;28;20109;-71
2024/03/04 06:51:06;;;;;;;1215.30;215.45;;;6.90;99.90;;;;;;4948927;28;20519;-70
2024/03/04 06:53:33;;;;;;;959.67;196.93;;;6.90;99.90;;;;;;4952349;28;20046;-70
2024/03/04 06:56:01;;;;;;;1381.10;237.82;;;6.80;99.90;;;;;;4968779;28;20730;-71
2024/03/04 06:58:28;;;;;;;945.00;191.02;;;6.90;99.90;;;;;;4971211;28;20125;-72
2024/03/04 07:00:55;;;;;;;1172.68;213.15;;;6.90;99.90;;;;;;4973757;28;20496;-71
2024/03/04 07:03:22;;;;;;;1339.38;228.57;;;6.90;99.90;;;;;;4972521;28;20099;-70
2024/03/04 07:05:49;;;;;;;999.28;192.48;;;6.80;99.90;;;;;;4961160;28;20471;-69
2024/03/04 07:08:16;;;;;;;1136.25;204.90;;;6.70;99.90;;;;;;4955347;28;20133;-71
2024/03/04 07:10:43;;;;;;;1080.53;202.43;;;6.70;99.90;;;;;;4965755;28;20050;-71
2024/03/04 07:13:11;;;;;;;1079.32;202.00;;;6.70;99.90;;;;;;4979052;28;20046;-70
2024/03/04 07:15:38;;;;;;;1040.72;188.13;;;6.70;99.90;;;;;;4970554;28;20055;-69
2024/03/04 07:18:05;;;;;;;909.45;185.00;;;6.70;99.90;;;;;;4953088;28;20082;-71
2024/03/04 07:20:32;;;;;;;1155.75;202.52;;;6.70;99.90;;;;;;4954778;28;20042;-70
2024/03/04 07:22:59;;;;;;;1409.53;243.52;;;6.70;99.90;;;;;;4968384;28;20051;-71
2024/03/04 07:25:26;;;;;;;1154.32;200.07;;;6.70;99.90;;;;;;4958646;28;20129;-69
2024/03/04 07:27:53;;;;;;;1275.72;211.65;;;6.70;99.90;;;;;;4973788;28;20089;-70
2024/03/04 07:30:20;;;;;;;1465.85;239.60;;;6.70;99.90;;;;;;4977791;28;20050;-70
2024/03/04 07:32:48;;;;;;;1317.07;224.07;;;6.70;99.90;;;;;;4970962;28;20050;-69
2024/03/04 07:35:15;;;;;;;1255.63;211.90;;;6.60;99.90;;;;;;4974189;28;20053;-70
2024/03/04 07:37:42;;;;;;;1089.18;190.25;;;6.70;99.90;;;;;;4976481;28;20053;-71
2024/03/04 07:40:10;;;;;;;1253.35;211.85;;;6.60;99.90;;;;;;4983215;28;20133;-70
2024/03/04 07:42:38;;;;;;;1543.65;240.68;;;6.60;99.90;;;;;;4963222;28;20042;-70
2024/03/04 07:45:06;;;;;;;1171.25;196.95;;;6.50;99.90;;;;;;4965267;28;20050;-70
2024/03/04 07:47:33;;;;;;;1209.10;207.50;;;6.50;99.90;;;;;;4973449;28;20570;-71
2024/03/04 07:50:00;;;;;;;1405.00;225.85;;;6.60;99.90;;;;;;4970900;28;20446;-71
2024/03/04 07:52:28;;;;;;;1266.60;211.32;;;6.60;99.90;;;;;;4950884;28;20046;-70
2024/03/04 07:54:55;;;;;;;1373.93;217.77;;;6.70;99.90;;;;;;4949254;28;20778;-70
2024/03/04 07:57:23;;;;;;;1164.65;195.73;;;6.70;99.90;;;;;;4955857;28;20540;-70
2024/03/04 07:59:51;;;;;;;1028.50;186.02;;;6.60;99.90;;;;;;4951472;28;20047;-70
2024/03/04 08:02:18;;;;;;;1117.95;195.70;;;6.50;99.90;;;;;;4954772;28;20047;-70
2024/03/04 08:04:46;;;;;;;1145.38;193.77;;;6.50;99.90;;;;;;4969043;28;20073;-69
2024/03/04 08:07:13;;;;;;;1104.68;190.75;;;6.50;99.90;;;;;;4976354;28;20529;-71
2024/03/04 08:09:41;;;;;;;981.72;182.43;;;6.50;99.90;;;;;;4977207;28;20054;-70
2024/03/04 08:12:08;;;;;;;975.72;179.75;;;6.50;99.90;;;;;;4973227;28;20053;-71
2024/03/04 08:14:36;;;;;;;1045.65;188.13;;;6.50;99.90;;;;;;4974588;28;20137;-70
2024/03/04 08:17:04;;;;;;;1212.28;202.48;;;6.40;99.90;;;;;;4969069;28;20039;-70
2024/03/04 08:19:31;;;;;;;1056.75;187.40;;;6.50;99.90;;;;;;4968132;28;20094;-72
2024/03/04 08:21:58;;;;;;;1193.65;201.55;;;6.50;99.90;;;;;;4968653;28;20068;-69
2024/03/04 08:24:25;;;;;;;1195.20;201.10;;;6.40;99.90;;;;;;4975251;28;20061;-70
2024/03/04 08:26:52;;;;;;;1116.05;192.50;;;6.40;99.90;;;;;;4971493;28;20042;-69
2024/03/04 08:29:19;;;;;;;1027.03;180.93;;;6.40;99.90;;;;;;4977867;28;20046;-69
2024/03/04 08:31:47;;;;;;;1060.03;190.10;;;6.50;99.90;;;;;;4969807;28;20046;-70
2024/03/04 08:34:15;;;;;;;1056.93;179.32;;;6.50;99.90;;;;;;4968932;28;20073;-71
2024/03/04 08:36:42;;;;;;;1156.05;194.95;;;6.50;99.90;;;;;;4975371;28;20038;-71
2024/03/04 08:39:10;;;;;;;997.38;173.45;;;6.40;99.90;;;;;;4973377;28;20046;-70
2024/03/04 08:41:46;;;;;;;837.53;163.82;;;6.50;99.90;;;;;;4965828;28;20046;-69
2024/03/04 08:44:14;;;;;;;1179.50;200.27;;;6.50;99.90;;;;;;4975432;28;20668;-69
2024/03/04 08:46:41;;;;;;;898.88;169.07;;;6.60;99.90;;;;;;4979862;28;20057;-69
2024/03/04 08:49:09;;;;;;;1057.28;186.27;;;6.70;99.90;;;;;;4979191;28;20050;-70
2024/03/04 08:51:38;;;;;;;1016.60;180.60;;;6.70;99.90;;;;;;4977693;28;20050;-70
2024/03/04 08:54:06;;;;;;;923.00;171.43;;;6.70;99.90;;;;;;4970280;28;20057;-70
2024/03/04 08:56:33;;;;;;;1036.97;184.35;;;6.80;99.90;;;;;;4966315;28;20685;-71
2024/03/04 08:59:02;;;;;;;1004.38;182.43;;;6.80;99.90;;;;;;4969412;28;20052;-69
2024/03/04 09:01:32;;;;;;;1006.08;179.82;;;6.80;99.90;;;;;;4977250;28;20052;-70
2024/03/04 09:04:00;;;;;;;895.75;170.45;;;6.80;99.90;;;;;;4977443;28;20084;-70
2024/03/04 09:06:29;;;;;;;951.45;170.30;;;6.80;99.90;;;;;;4972044;28;20237;-70
2024/03/04 09:08:57;;;;;;;1012.72;178.88;;;6.80;99.90;;;;;;4991549;28;20050;-68
2024/03/04 09:11:24;;;;;;;982.55;179.70;;;6.80;99.90;;;;;;4976121;28;20053;-71
2024/03/04 09:13:55;;;;;;;997.20;177.80;;;6.70;99.90;;;;;;4970955;28;20045;-69
2024/03/04 09:16:23;;;;;;;1024.18;180.65;;;6.70;99.90;;;;;;4972491;28;20046;-70
2024/03/04 09:18:51;;;;;;;966.50;170.75;;;6.70;99.90;;;;;;4973455;28;20757;-70
2024/03/04 09:21:18;;;;;;;798.03;148.93;;;6.80;99.90;;;;;;4970396;28;20100;-70
2024/03/04 09:23:47;;;;;;;1289.13;204.15;;;6.80;99.90;;;;;;4977814;28;20054;-68
2024/03/04 09:26:14;;;;;;;955.33;170.98;;;6.70;99.90;;;;;;4971333;28;20074;-71
2024/03/04 09:28:51;;;;;;;1008.45;176.38;;;6.70;99.90;;;;;;4955971;28;20659;-69
2024/03/04 09:31:19;;;;;;;865.50;160.68;;;6.80;99.90;;;;;;4963539;28;20058;-71
2024/03/04 09:33:46;;;;;;;1162.45;191.52;;;6.90;99.90;;;;;;4967649;28;20074;-68
2024/03/04 09:36:14;;;;;;;780.92;150.05;;;6.90;99.90;;;;;;4969756;28;20054;-69
2024/03/04 09:38:43;;;;;;;925.67;161.15;;;6.90;99.90;;;;;;4975316;28;20042;-71
2024/03/04 09:41:10;;;;;;;896.70;165.88;;;6.90;99.90;;;;;;4961459;28;20133;-71
2024/03/04 09:43:38;;;;;;;1138.20;192.82;;;6.90;99.90;;;;;;4971545;28;20130;-69
2024/03/04 09:46:07;;;;;;;1160.30;198.23;;;7.00;99.90;;;;;;4969264;28;20064;-71
2024/03/04 09:48:39;;;;;;;967.53;165.40;;;7.00;99.90;;;;;;4973523;28;20112;-70
2024/03/04 09:51:09;;;;;;;944.15;169.38;;;7.00;99.90;;;;;;4971634;28;20118;-70
2024/03/04 09:53:38;;;;;;;947.83;176.98;;;7.00;99.90;;;;;;4980507;28;20046;-71
2024/03/04 09:56:05;;;;;;;704.58;146.25;;;6.90;99.90;;;;;;4966604;28;20124;-69
2024/03/04 09:58:33;;;;;;;798.92;155.95;;;6.80;99.90;;;;;;4956867;28;20050;-70
2024/03/04 10:01:04;;;;;;;770.22;148.35;;;6.80;99.90;;;;;;4965708;28;20527;-70
2024/03/04 10:03:31;;;;;;;867.75;160.00;;;6.80;99.90;;;;;;4972541;28;20050;-69
2024/03/04 10:05:58;;;;;;;745.67;148.65;;;6.90;99.90;;;;;;4959163;28;20059;-69
2024/03/04 10:08:27;;;;;;;805.63;158.18;;;6.90;99.90;;;;;;4953098;28;20351;-70
2024/03/04 10:10:54;;;;;;;896.70;167.18;;;6.90;99.90;;;;;;4958176;28;20054;-69
2024/03/04 10:13:21;;;;;;;908.90;167.45;;;7.00;99.90;;;;;;4968199;28;20046;-70
2024/03/04 10:15:50;;;;;;;857.53;165.07;;;7.10;99.90;;;;;;4971280;28;20578;-71
2024/03/04 10:18:18;;;;;;;852.97;160.90;;;7.20;99.90;;;;;;4974844;28;20050;-70
2024/03/04 10:20:45;;;;;;;676.80;134.93;;;7.00;99.90;;;;;;4972875;28;20084;-71
2024/03/04 10:23:12;;;;;;;537.33;126.82;;;6.90;99.90;;;;;;4968649;28;20050;-71
2024/03/04 10:25:40;;;;;;;569.47;125.38;;;6.90;99.90;;;;;;4974670;28;20046;-70
2024/03/04 10:28:07;;;;;;;628.60;135.32;;;7.00;99.90;;;;;;4973633;28;20058;-71
2024/03/04 10:30:34;;;;;;;748.67;150.23;;;7.10;99.90;;;;;;4967434;28;20137;-70
2024/03/04 10:33:03;;;;;;;655.63;143.90;;;7.00;99.90;;;;;;4969256;28;20046;-68
2024/03/04 10:35:31;;;;;;;742.28;145.23;;;7.10;99.90;;;;;;4971209;28;20046;-71
2024/03/04 10:38:02;;;;;;;820.83;154.85;;;7.00;99.90;;;;;;4983016;28;20064;-70
2024/03/04 10:40:33;;;;;;;608.20;129.55;;;7.00;99.90;;;;;;4971647;28;20109;-71
2024/03/04 10:43:03;;;;;;;757.40;147.18;;;7.00;99.90;;;;;;4967042;28;20136;-69
2024/03/04 10:45:34;;;;;;;769.78;146.60;;;7.00;99.90;;;;;;4970815;28;20050;-70
2024/03/04 10:48:02;;;;;;;706.03;147.02;;;7.00;99.90;;;;;;4982088;28;20060;-69
2024/03/04 10:50:30;;;;;;;503.92;119.30;;;7.00;99.90;;;;;;4975146;28;20100;-69
2024/03/04 10:52:58;;;;;;;617.00;134.10;;;7.00;99.90;;;;;;4971705;28;20050;-71
2024/03/04 10:55:30;;;;;;;600.05;127.30;;;7.10;99.90;;;;;;4978583;28;20534;-69
2024/03/04 10:58:01;;;;;;;496.70;119.20;;;7.00;99.90;;;;;;4974181;28;20507;-70
2024/03/04 11:00:32;;;;;;;594.88;133.20;;;7.00;99.90;;;;;;4981052;28;20786;-70
2024/03/04 11:03:00;;;;;;;611.33;130.88;;;7.00;99.90;;;;;;4978244;28;20050;-71
2024/03/04 11:05:32;;;;;;;572.30;130.80;;;7.10;99.90;;;;;;4973281;28;20123;-71
2024/03/04 11:08:15;;;;;;;555.47;123.55;;;7.20;99.90;;;;;;4975815;28;20499;-70
2024/03/04 11:10:49;;;;;;;475.83;113.00;;;7.40;99.90;;;;;;4971458;28;20058;-70
2024/03/04 11:13:34;;;;;;;474.02;113.00;;;7.30;99.90;;;;;;4971525;28;20061;-69
2024/03/04 11:16:07;;;;;;;413.20;108.75;;;7.30;99.90;;;;;;4977760;28;20050;-71
2024/03/04 11:18:40;;;;;;;418.83;106.78;;;7.20;99.90;;;;;;4975166;28;20045;-71
2024/03/04 11:21:07;;;;;;;425.95;108.25;;;7.20;99.90;;;;;;4956321;28;20046;-70
2024/03/04 11:23:35;;;;;;;358.58;101.18;;;7.20;99.90;;;;;;4971476;28;20103;-70
2024/03/04 11:26:03;;;;;;;332.13;100.57;;;7.20;99.90;;;;;;4970046;28;20446;-71
2024/03/04 11:28:31;;;;;;;364.65;100.47;;;7.30;99.90;;;;;;4967855;28;20045;-70
2024/03/04 11:30:58;;;;;;;360.08;99.45;;;7.30;99.90;;;;;;4970444;28;20137;-69
2024/03/04 11:33:37;;;;;;;363.98;97.13;;;7.40;99.90;;;;;;4931957;28;20054;-71
2024/03/04 11:36:09;;;;;;;383.50;100.85;;;7.30;99.90;;;;;;4958058;28;20381;-70
2024/03/04 11:38:45;;;;;;;437.55;107.82;;;7.40;99.90;;;;;;4975919;28;20133;-71
2024/03/04 11:41:33;;;;;;;351.83;97.53;;;7.50;99.90;;;;;;4966045;28;20042;-70
2024/03/04 11:43:59;;;;;;;409.40;102.13;;;7.50;99.90;;;;;;4969327;28;20118;-69
2024/03/04 11:46:26;;;;;;;350.35;98.35;;;7.60;99.90;;;;;;4972144;28;20078;-71
2024/03/04 11:48:56;;;;;;;429.98;108.60;;;7.70;99.90;;;;;;4974864;28;20137;-68
2024/03/04 11:51:46;;;;;;;399.25;100.30;;;7.70;99.90;;;;;;4970445;28;20404;-71
2024/03/04 11:54:13;;;;;;;441.02;103.43;;;7.70;99.90;;;;;;4962655;28;21720;-70
2024/03/04 11:56:42;;;;;;;444.92;107.40;;;7.70;99.90;;;;;;4971242;28;21692;-70
2024/03/04 11:59:13;;;;;;;462.33;111.53;;;7.80;99.90;;;;;;4982500;28;20129;-69
2024/03/04 12:01:40;;;;;;;390.83;100.97;;;8.00;99.90;;;;;;4971077;28;20422;-69
2024/03/04 12:04:07;;;;;;;372.27;97.93;;;7.90;99.90;;;;;;4968548;28;20133;-71
2024/03/04 12:06:34;;;;;;;352.02;98.65;;;8.00;99.90;;;;;;4974363;28;20205;-71
2024/03/04 12:09:04;;;;;;;314.40;93.53;;;8.00;99.90;;;;;;4968660;28;20059;-72
2024/03/04 12:11:57;;;;;;;317.65;91.53;;;8.00;99.90;;;;;;4968223;28;20057;-71
2024/03/04 12:14:24;;;;;;;317.67;91.78;;;7.90;99.90;;;;;;4968448;28;20132;-70
2024/03/04 12:16:51;;;;;;;295.35;87.43;;;7.90;99.90;;;;;;4974486;28;20050;-71
2024/03/04 12:19:18;;;;;;;357.67;93.45;;;7.90;99.90;;;;;;4948869;28;20559;-71
2024/03/04 12:21:46;;;;;;;246.48;82.70;;;7.90;99.90;;;;;;4971027;28;20163;-70
2024/03/04 12:24:17;;;;;;;322.80;90.63;;;8.00;99.90;;;;;;4967023;28;20049;-71
2024/03/04 12:26:54;;;;;;;299.38;90.50;;;7.90;99.90;;;;;;4973624;28;20047;-71